Sorang, Kazakhstan
Current Conditions -  °F | °C
As of 2:00 PM on Monday 22 Dec 2014 (Local Time) from UAKK Reporting Station
Clear Clear  
Wind Chill: 19°   Ceiling: Unl
Heat Index: 19°   Visibility: 6mi
Dew Point: 16°   Wind: 2mph
Humidity: 86%   Direction: 40°NE
Pressure: 30.12"   Gusts: NA
Location:  49.78°N, 72.85°E
Report Text: UAKK 220800Z 04001MPS CAVOK M07/M09 Q1020 R23/410560 NOSIG RMKQFE718/0957
Loading
Personal Weather Stations






























Interactive Weather Map New forecast layout! Learn more

10-Day Weather Forecast

Advertisements
Track Severe Weather on mobile